createdAt,value
2022-12-11T00:00:30.482Z,97430.88
2022-12-11T00:03:19.954Z,97416.97
2022-12-11T00:05:47.597Z,97436.81
2022-12-11T00:08:15.894Z,97448.47
2022-12-11T00:10:50.126Z,97449.75
2022-12-11T00:13:17.450Z,97445.53
2022-12-11T00:15:45.002Z,97452.88
2022-12-11T00:18:14.324Z,97460.09
2022-12-11T00:20:42.317Z,97468.06
2022-12-11T00:23:11.199Z,97472.63
2022-12-11T00:25:46.722Z,97468.69
2022-12-11T00:28:18.168Z,97472.16
2022-12-11T00:30:46.170Z,97467.22
2022-12-11T00:33:15.305Z,97482.28
2022-12-11T00:35:46.453Z,97492.25
2022-12-11T00:38:20.258Z,97489.66
2022-12-11T00:40:49.507Z,97495.56
2022-12-11T00:43:17.699Z,97491.72
2022-12-11T00:45:48.121Z,97488.28
2022-12-11T00:48:15.625Z,97510.63
2022-12-11T00:50:43.283Z,97521.31
2022-12-11T00:53:10.850Z,97524.25
2022-12-11T00:55:43.359Z,97520.38
2022-12-11T00:58:11.569Z,97511.56
2022-12-11T01:00:40.258Z,97519.22
2022-12-11T01:03:08.293Z,97523.81
2022-12-11T01:05:37.183Z,97527.75
2022-12-11T01:08:04.817Z,97520.56
2022-12-11T01:10:35.068Z,97515.31
2022-12-11T01:13:07.001Z,97493.56
2022-12-11T01:15:41.891Z,97509.03
2022-12-11T01:18:11.917Z,97510.97
2022-12-11T01:20:41.504Z,97497.13
2022-12-11T01:23:12.585Z,97513.38
2022-12-11T01:25:40.850Z,97522.47
2022-12-11T01:28:09.334Z,97519.28
2022-12-11T01:30:37.481Z,97519.34
2022-12-11T01:33:04.764Z,97549.03
2022-12-11T01:35:34.091Z,97553.75
2022-12-11T01:38:01.579Z,97564.47
2022-12-11T01:40:29.921Z,97581.44
2022-12-11T01:42:57.440Z,97555.91
2022-12-11T01:45:27.397Z,97570.91
2022-12-11T01:48:12.577Z,97572.84
2022-12-11T01:50:45.552Z,97582.38
2022-12-11T01:53:16.710Z,97582.03
2022-12-11T01:55:47.593Z,97594.69
2022-12-11T01:58:16.544Z,97594.81
2022-12-11T02:00:44.096Z,97605.09
2022-12-11T02:03:11.584Z,97596.47
2022-12-11T02:05:39.491Z,97617.09
2022-12-11T02:08:08.004Z,97611.53
2022-12-11T02:10:57.273Z,97628.16
2022-12-11T02:13:24.527Z,97628.13
2022-12-11T02:16:14.201Z,97631.06
2022-12-11T02:19:42.750Z,97643.81
2022-12-11T02:22:18.175Z,97656.69
2022-12-11T02:25:21.856Z,97668.41
2022-12-11T02:27:59.018Z,97689.97
2022-12-11T02:30:27.076Z,97671.03
2022-12-11T02:32:59.139Z,97673.97
2022-12-11T02:35:32.053Z,97680.38
2022-12-11T02:38:08.779Z,97677.50
2022-12-11T02:40:39.929Z,97678.34
2022-12-11T02:43:13.677Z,97711.81
2022-12-11T02:45:42.711Z,97713.84
2022-12-11T02:48:11.980Z,97727.41
2022-12-11T02:50:46.366Z,97724.75
2022-12-11T02:53:18.704Z,97745.50
2022-12-11T02:55:47.610Z,97755.16
2022-12-11T02:58:38.386Z,97746.53
2022-12-11T03:01:06.044Z,97755.34
2022-12-11T03:03:33.751Z,97761.94
2022-12-11T03:06:01.673Z,97790.06
2022-12-11T03:08:29.302Z,97787.19
2022-12-11T03:10:56.586Z,97772.81
2022-12-11T03:13:24.238Z,97782.44
2022-12-11T03:16:03.652Z,97783.25
2022-12-11T03:18:44.796Z,97756.97
2022-12-11T03:21:20.432Z,97791.31
2022-12-11T03:23:54.251Z,97795.81
2022-12-11T03:26:24.587Z,97794.78
2022-12-11T03:29:00.721Z,97793.94
2022-12-11T03:31:48.504Z,97804.56
2022-12-11T03:34:28.087Z,97802.69
2022-12-11T03:36:58.672Z,97824.75
2022-12-11T03:39:32.456Z,97823.22
2022-12-11T03:42:02.598Z,97832.88
2022-12-11T03:44:33.617Z,97822.53
2022-12-11T03:47:03.581Z,97841.03
2022-12-11T03:49:37.092Z,97834.56
2022-12-11T03:52:05.568Z,97827.16
2022-12-11T03:54:34.957Z,97830.75
2022-12-11T03:57:05.062Z,97843.44
2022-12-11T03:59:35.131Z,97839.41
2022-12-11T04:02:02.459Z,97837.78
2022-12-11T04:04:30.152Z,97853.38
2022-12-11T04:06:58.861Z,97860.63
2022-12-11T04:09:26.400Z,97857.66
2022-12-11T04:11:53.641Z,97865.25
2022-12-11T04:14:40.086Z,97877.97
2022-12-11T04:17:07.340Z,97888.38
2022-12-11T04:19:53.422Z,97911.38
2022-12-11T04:22:39.055Z,97910.09
2022-12-11T04:25:08.471Z,97889.97
2022-12-11T04:27:50.747Z,97897.47
2022-12-11T04:30:22.020Z,97922.53
2022-12-11T04:32:49.850Z,97932.22
2022-12-11T04:35:18.085Z,97935.44
2022-12-11T04:37:45.333Z,97937.94
2022-12-11T04:40:15.550Z,97948.06
2022-12-11T04:42:43.419Z,97952.63
2022-12-11T04:45:13.098Z,97959.22
2022-12-11T04:47:41.387Z,97952.69
2022-12-11T04:50:12.378Z,97984.28
2022-12-11T04:52:39.616Z,97972.38
2022-12-11T04:55:08.169Z,97975.41
2022-12-11T04:57:35.683Z,97986.44
2022-12-11T05:00:07.586Z,97977.59
2022-12-11T05:02:37.766Z,97987.84
2022-12-11T05:05:07.390Z,98004.59
2022-12-11T05:07:34.613Z,98004.84
2022-12-11T05:10:03.815Z,98009.50
2022-12-11T05:12:32.783Z,98017.31
2022-12-11T05:15:00.388Z,98002.56
2022-12-11T05:17:27.743Z,98022.34
2022-12-11T05:19:55.299Z,98026.75
2022-12-11T05:22:22.636Z,98023.91
2022-12-11T05:24:50.286Z,98016.03
2022-12-11T05:27:17.559Z,98027.72
2022-12-11T05:29:45.195Z,98025.28
2022-12-11T05:32:12.355Z,98043.69
2022-12-11T05:34:39.908Z,98028.72
2022-12-11T05:37:07.471Z,98028.97
2022-12-11T05:42:24.010Z,98045.81
2022-12-11T05:44:54.714Z,98048.88
2022-12-11T05:47:22.052Z,98050.44
2022-12-11T05:49:52.375Z,98061.25
2022-12-11T05:52:20.334Z,98056.94
2022-12-11T05:54:50.526Z,98052.06
2022-12-11T05:57:17.889Z,98059.63
2022-12-11T05:59:46.588Z,98076.78
2022-12-11T06:02:13.996Z,98097.22
2022-12-11T06:04:42.073Z,98089.59
2022-12-11T06:07:10.397Z,98079.25
2022-12-11T06:09:37.907Z,98094.13
2022-12-11T06:12:05.198Z,98087.91
2022-12-11T06:14:32.724Z,98103.91
2022-12-11T06:16:59.992Z,98093.19
2022-12-11T06:19:29.773Z,98101.75
2022-12-11T06:22:00.901Z,98104.16
2022-12-11T06:24:28.638Z,98120.78
2022-12-11T06:26:55.890Z,98110.25
2022-12-11T06:29:23.399Z,98106.44
2022-12-11T06:31:50.660Z,98119.25
2022-12-11T06:34:18.203Z,98122.81
2022-12-11T06:36:46.377Z,98130.19
2022-12-11T06:39:13.907Z,98110.25
2022-12-11T06:41:41.333Z,98131.31
2022-12-11T06:44:09.486Z,98139.72
2022-12-11T06:46:36.713Z,98139.00
2022-12-11T06:49:04.191Z,98140.78
2022-12-11T06:51:32.881Z,98135.44
2022-12-11T06:54:00.350Z,98143.09
2022-12-11T06:56:27.569Z,98148.28
2022-12-11T06:58:57.163Z,98147.75
2022-12-11T07:01:27.779Z,98152.00
2022-12-11T07:03:57.565Z,98163.19
2022-12-11T07:06:26.197Z,98158.38
2022-12-11T07:08:54.587Z,98165.72
2022-12-11T07:11:22.063Z,98154.06
2022-12-11T07:13:49.869Z,98146.06
2022-12-11T07:16:18.109Z,98188.00
2022-12-11T07:18:51.339Z,98186.25
2022-12-11T07:21:20.525Z,98200.78
2022-12-11T07:23:49.116Z,98216.47
2022-12-11T07:26:20.743Z,98210.81
2022-12-11T07:28:49.413Z,98226.25
2022-12-11T07:31:23.274Z,98234.06
2022-12-11T07:34:02.794Z,98222.66
2022-12-11T07:36:30.474Z,98251.22
2022-12-11T07:38:59.170Z,98240.31
2022-12-11T07:41:31.830Z,98231.47
2022-12-11T07:44:00.520Z,98264.63
2022-12-11T07:46:29.655Z,98268.69
2022-12-11T07:48:57.227Z,98265.25
2022-12-11T07:51:28.141Z,98275.47
2022-12-11T07:53:59.782Z,98267.19
2022-12-11T07:56:28.735Z,98284.13
2022-12-11T07:58:59.966Z,98293.03
2022-12-11T08:01:29.542Z,98288.00
2022-12-11T08:03:57.857Z,98295.56
2022-12-11T08:06:28.067Z,98290.84
2022-12-11T08:08:58.747Z,98300.00
2022-12-11T08:11:27.143Z,98305.72
2022-12-11T08:13:55.437Z,98300.69
2022-12-11T08:16:23.208Z,98322.91
2022-12-11T08:18:53.865Z,98319.25
2022-12-11T08:21:23.774Z,98320.84
2022-12-11T08:23:52.880Z,98335.13
2022-12-11T08:26:26.372Z,98330.91
2022-12-11T08:29:00.832Z,98290.56
2022-12-11T08:31:32.115Z,98355.72
2022-12-11T08:33:59.679Z,98339.94
2022-12-11T08:36:27.037Z,98349.69
2022-12-11T08:38:55.882Z,98356.16
2022-12-11T08:41:26.934Z,98346.00
2022-12-11T08:43:55.769Z,98346.63
2022-12-11T08:46:25.206Z,98340.75
2022-12-11T08:48:53.413Z,98341.84
2022-12-11T08:51:24.309Z,98350.66
2022-12-11T08:53:57.017Z,98362.03
2022-12-11T08:56:25.473Z,98357.09
2022-12-11T08:58:53.526Z,98361.38
2022-12-11T09:01:26.517Z,98364.16
2022-12-11T09:04:12.821Z,98369.25
2022-12-11T09:06:40.069Z,98356.69
2022-12-11T09:09:07.632Z,98364.34
2022-12-11T09:11:37.672Z,98353.41
2022-12-11T09:14:07.843Z,98350.47
2022-12-11T09:16:40.449Z,98349.94
2022-12-11T09:19:11.785Z,98361.13
2022-12-11T09:21:39.069Z,98364.63
2022-12-11T09:24:07.020Z,98362.97
2022-12-11T09:26:34.319Z,98347.78
2022-12-11T09:29:04.098Z,98359.28
2022-12-11T09:31:35.146Z,98347.78
2022-12-11T09:34:08.090Z,98330.69
2022-12-11T09:36:35.622Z,98312.16
2022-12-11T09:39:05.894Z,98323.78
2022-12-11T09:41:59.922Z,98312.59
2022-12-11T09:44:38.324Z,98313.28
2022-12-11T09:47:36.321Z,98318.34
2022-12-11T09:50:11.229Z,98312.16
2022-12-11T09:53:06.070Z,98330.81
2022-12-11T09:55:47.197Z,98336.50
2022-12-11T09:58:33.038Z,98343.56
2022-12-11T10:01:10.183Z,98346.38
2022-12-11T10:04:07.992Z,98348.06
2022-12-11T10:06:47.259Z,98352.81
2022-12-11T10:09:27.929Z,98346.44
2022-12-11T10:12:04.643Z,98351.41
2022-12-11T10:14:35.114Z,98356.03
2022-12-11T10:17:20.419Z,98354.78
2022-12-11T10:19:49.538Z,98359.16
2022-12-11T10:22:27.576Z,98358.41
2022-12-11T10:25:11.265Z,98365.91
2022-12-11T10:27:41.327Z,98360.06
2022-12-11T10:30:16.835Z,98354.72
2022-12-11T10:32:50.630Z,98354.00
2022-12-11T10:35:51.235Z,98349.44
2022-12-11T10:38:28.758Z,98355.47
2022-12-11T10:41:05.113Z,98355.44
2022-12-11T10:43:42.502Z,98347.81
2022-12-11T10:46:19.916Z,98345.97
2022-12-11T10:48:56.902Z,98321.56
2022-12-11T10:51:39.255Z,98319.84
2022-12-11T10:54:17.518Z,98314.50
2022-12-11T10:56:48.646Z,98295.91
2022-12-11T10:59:38.375Z,98306.25
2022-12-11T11:02:16.322Z,98290.47
2022-12-11T11:04:45.397Z,98296.81
2022-12-11T11:07:22.049Z,98303.56
2022-12-11T11:09:50.479Z,98308.63
2022-12-11T11:12:24.390Z,98319.63
2022-12-11T11:15:27.817Z,98327.94
2022-12-11T11:17:57.664Z,98320.78
2022-12-11T11:20:29.341Z,98323.44
2022-12-11T11:23:00.490Z,98335.69
2022-12-11T11:25:31.630Z,98320.44
2022-12-11T11:28:00.803Z,98334.84
2022-12-11T11:30:41.710Z,98347.09
2022-12-11T11:33:21.128Z,98334.59
2022-12-11T11:35:52.972Z,98334.44
2022-12-11T11:38:49.879Z,98335.16
2022-12-11T11:41:35.703Z,98337.13
2022-12-11T11:44:07.219Z,98338.94
2022-12-11T11:46:48.977Z,98334.69
2022-12-11T11:49:28.291Z,98332.56
2022-12-11T11:52:40.158Z,98331.84
2022-12-11T11:55:22.485Z,98315.38
2022-12-11T11:58:23.203Z,98323.59
2022-12-11T12:00:54.764Z,98314.06
2022-12-11T12:03:25.891Z,98302.53
2022-12-11T12:06:09.783Z,98322.94
2022-12-11T12:09:19.199Z,98325.50
2022-12-11T12:12:20.932Z,98315.94
2022-12-11T12:15:09.671Z,98313.44
2022-12-11T12:17:56.414Z,98311.47
2022-12-11T12:20:39.450Z,98331.38
2022-12-11T12:23:15.053Z,98327.47
2022-12-11T12:26:11.261Z,98341.47
2022-12-11T12:29:01.750Z,98336.16
2022-12-11T12:32:06.863Z,98346.91
2022-12-11T12:35:08.593Z,98341.47
2022-12-11T12:38:02.520Z,98330.53
2022-12-11T12:40:39.652Z,98332.84
2022-12-11T12:43:25.760Z,98332.59
2022-12-11T12:46:20.185Z,98338.56
2022-12-11T12:48:49.743Z,98346.59
2022-12-11T12:51:18.436Z,98359.25
2022-12-11T12:54:00.790Z,98369.66
2022-12-11T12:56:32.843Z,98372.75
2022-12-11T12:59:00.358Z,98370.03
2022-12-11T13:01:30.125Z,98379.56
2022-12-11T13:04:16.781Z,98382.50
2022-12-11T13:07:00.651Z,98380.13
2022-12-11T13:09:28.706Z,98378.81
2022-12-11T13:15:01.111Z,98389.31
2022-12-11T13:17:39.203Z,98390.22
2022-12-11T13:20:18.223Z,98395.97
2022-12-11T13:23:02.040Z,98404.44
2022-12-11T13:25:31.901Z,98399.19
2022-12-11T13:28:23.266Z,98413.38
2022-12-11T13:31:16.076Z,98412.38
2022-12-11T13:33:54.474Z,98420.34
2022-12-11T13:36:24.804Z,98354.94
2022-12-11T13:38:58.059Z,98411.31
2022-12-11T13:41:26.778Z,98422.31
2022-12-11T13:43:55.771Z,98427.88
2022-12-11T13:46:29.477Z,98427.47
2022-12-11T13:49:02.686Z,98417.91
2022-12-11T13:51:33.515Z,98430.22
2022-12-11T13:54:18.715Z,98427.75
2022-12-11T13:57:15.635Z,98425.31
2022-12-11T13:59:53.530Z,98432.38
2022-12-11T14:02:32.750Z,98440.56
2022-12-11T14:05:08.763Z,98446.94
2022-12-11T14:07:44.755Z,98440.44
2022-12-11T14:10:15.040Z,98450.44
2022-12-11T14:12:55.467Z,98437.56
2022-12-11T14:15:23.830Z,98432.28
2022-12-11T14:17:52.306Z,98431.41
2022-12-11T14:20:23.331Z,98431.69
2022-12-11T14:22:51.442Z,98431.16
2022-12-11T14:25:27.320Z,98434.81
2022-12-11T14:27:56.844Z,98413.72
2022-12-11T14:30:30.078Z,98436.06
2022-12-11T14:33:01.531Z,98441.84
2022-12-11T14:35:40.007Z,98442.88
2022-12-11T14:38:24.136Z,98444.84
2022-12-11T14:40:58.609Z,98439.81
2022-12-11T14:43:32.376Z,98431.00
2022-12-11T14:46:06.002Z,98441.78
2022-12-11T14:48:45.718Z,98438.22
2022-12-11T14:51:17.231Z,98439.16
2022-12-11T14:53:49.192Z,98443.66
2022-12-11T14:56:27.832Z,98465.47
2022-12-11T14:59:03.097Z,98459.53
2022-12-11T15:01:33.014Z,98446.44
2022-12-11T15:04:27.891Z,98452.84
2022-12-11T15:06:55.913Z,98474.31
2022-12-11T15:09:37.931Z,98473.63
2022-12-11T15:12:16.709Z,98466.81
2022-12-11T15:14:56.291Z,98474.69
2022-12-11T15:17:25.691Z,98462.41
2022-12-11T15:20:04.967Z,98468.69
2022-12-11T15:22:33.250Z,98473.50
2022-12-11T15:25:01.455Z,98474.41
2022-12-11T15:27:31.766Z,98481.63
2022-12-11T15:30:01.570Z,98491.16
2022-12-11T15:32:30.565Z,98481.69
2022-12-11T15:35:01.117Z,98496.63
2022-12-11T15:37:31.680Z,98491.09
2022-12-11T15:40:01.098Z,98486.78
2022-12-11T15:42:40.982Z,98489.88
2022-12-11T15:45:16.511Z,98501.56
2022-12-11T15:47:45.339Z,98486.84
2022-12-11T15:50:17.487Z,98496.63
2022-12-11T15:52:45.500Z,98489.94
2022-12-11T15:55:34.967Z,98481.31
2022-12-11T15:58:06.176Z,98489.69
2022-12-11T16:00:34.534Z,98485.50
2022-12-11T16:03:02.042Z,98493.41
2022-12-11T16:05:31.476Z,98498.22
2022-12-11T16:08:01.915Z,98492.75
2022-12-11T16:10:29.735Z,98494.81
2022-12-11T16:12:59.767Z,98499.25
2022-12-11T16:15:29.624Z,98502.56
2022-12-11T16:18:04.864Z,98440.44
2022-12-11T16:20:34.336Z,98488.94
2022-12-11T16:23:20.672Z,98491.22
2022-12-11T16:25:48.408Z,98487.84
2022-12-11T16:28:18.147Z,98489.13
2022-12-11T16:30:46.019Z,98484.97
2022-12-11T16:33:15.234Z,98493.06
2022-12-11T16:35:43.096Z,98483.47
2022-12-11T16:38:11.079Z,98490.06
2022-12-11T16:40:39.358Z,98473.13
2022-12-11T16:43:25.291Z,98486.25
2022-12-11T16:45:56.220Z,98489.94
2022-12-11T16:48:23.567Z,98484.13
2022-12-11T16:50:56.067Z,98487.28
2022-12-11T16:53:23.725Z,98473.03
2022-12-11T16:55:51.799Z,98482.19
2022-12-11T16:58:20.315Z,98473.97
2022-12-11T17:00:48.795Z,98478.44
2022-12-11T17:03:16.587Z,98484.47
2022-12-11T17:05:44.348Z,98477.44
2022-12-11T17:08:12.942Z,98480.91
2022-12-11T17:10:41.833Z,98484.94
2022-12-11T17:13:09.104Z,98483.91
2022-12-11T17:15:41.482Z,98497.53
2022-12-11T17:18:09.352Z,98497.97
2022-12-11T17:20:44.743Z,98498.44
2022-12-11T17:23:13.513Z,98504.56
2022-12-11T17:25:45.736Z,98496.38
2022-12-11T17:28:13.911Z,98506.56
2022-12-11T17:30:43.531Z,98491.47
2022-12-11T17:33:12.034Z,98494.53
2022-12-11T17:35:39.774Z,98501.81
2022-12-11T17:38:07.332Z,98493.75
2022-12-11T17:40:35.256Z,98488.34
2022-12-11T17:43:31.446Z,98492.47
2022-12-11T17:45:59.194Z,98502.44
2022-12-11T17:48:26.864Z,98503.81
2022-12-11T17:50:54.751Z,98497.16
2022-12-11T17:53:24.424Z,98490.06
2022-12-11T17:55:52.297Z,98490.25
2022-12-11T17:58:22.341Z,98481.34
2022-12-11T18:00:54.390Z,98504.09
2022-12-11T18:03:23.534Z,98494.41
2022-12-11T18:05:56.550Z,98489.69
2022-12-11T18:08:27.348Z,98496.06
2022-12-11T18:10:56.590Z,98502.63
2022-12-11T18:13:24.632Z,98491.78
2022-12-11T18:16:06.026Z,98495.06
2022-12-11T18:18:33.913Z,98502.34
2022-12-11T18:21:02.272Z,98501.56
2022-12-11T18:23:30.022Z,98501.72
2022-12-11T18:25:57.597Z,98503.03
2022-12-11T18:28:24.860Z,98483.59
2022-12-11T18:30:54.102Z,98501.84
2022-12-11T18:33:23.254Z,98485.72
2022-12-11T18:35:51.838Z,98496.34
2022-12-11T18:38:19.180Z,98498.88
2022-12-11T18:40:48.844Z,98499.81
2022-12-11T18:43:18.293Z,98490.78
2022-12-11T18:46:01.008Z,98507.75
2022-12-11T18:48:28.716Z,98487.53
2022-12-11T18:51:25.510Z,98513.38
2022-12-11T18:54:02.703Z,98518.47
2022-12-11T18:56:30.770Z,98516.47
2022-12-11T18:58:59.937Z,98522.91
2022-12-11T19:01:30.089Z,98521.59
2022-12-11T19:04:07.755Z,98522.09
2022-12-11T19:07:07.453Z,98536.66
2022-12-11T19:09:38.203Z,98535.09
2022-12-11T19:12:08.136Z,98536.28
2022-12-11T19:14:45.753Z,98530.94
2022-12-11T19:17:15.024Z,98519.63
2022-12-11T19:19:47.023Z,98522.81
2022-12-11T19:22:16.769Z,98532.28
2022-12-11T19:24:45.631Z,98521.91
2022-12-11T19:27:13.820Z,98518.59
2022-12-11T19:29:41.483Z,98528.53
2022-12-11T19:32:09.126Z,98536.31
2022-12-11T19:34:38.664Z,98542.53
2022-12-11T19:37:08.460Z,98556.44
2022-12-11T19:39:39.636Z,98554.88
2022-12-11T19:42:07.432Z,98553.84
2022-12-11T19:44:36.651Z,98551.50
2022-12-11T19:47:06.369Z,98534.72
2022-12-11T19:49:34.811Z,98551.91
2022-12-11T19:52:08.035Z,98561.84
2022-12-11T19:54:36.110Z,98555.41
2022-12-11T19:57:04.285Z,98547.56
2022-12-11T19:59:31.801Z,98553.94
2022-12-11T20:01:59.813Z,98541.88
2022-12-11T20:04:27.429Z,98537.53
2022-12-11T20:06:55.204Z,98541.00
2022-12-11T20:09:24.468Z,98531.84
2022-12-11T20:11:52.235Z,98546.50
2022-12-11T20:14:27.682Z,98535.53
2022-12-11T20:17:13.798Z,98543.94
2022-12-11T20:19:43.539Z,98540.19
2022-12-11T20:22:12.329Z,98559.34
2022-12-11T20:24:45.756Z,98563.41
2022-12-11T20:27:13.534Z,98569.41
2022-12-11T20:29:49.724Z,98579.31
2022-12-11T20:32:17.763Z,98574.25
2022-12-11T20:34:47.188Z,98583.75
2022-12-11T20:37:14.885Z,98590.00
2022-12-11T20:40:14.554Z,98582.63
2022-12-11T20:42:42.595Z,98571.81
2022-12-11T20:45:13.217Z,98540.47
2022-12-11T20:47:40.925Z,98568.69
2022-12-11T20:50:11.177Z,98584.69
2022-12-11T20:52:39.330Z,98596.66
2022-12-11T20:55:10.515Z,98600.63
2022-12-11T20:57:45.055Z,98585.19
2022-12-11T21:00:18.103Z,98594.09
2022-12-11T21:02:51.167Z,98595.38
2022-12-11T21:05:18.599Z,98593.69
2022-12-11T21:07:54.166Z,98605.50
2022-12-11T21:10:23.159Z,98595.22
2022-12-11T21:12:51.825Z,98607.09
2022-12-11T21:15:19.358Z,98614.16
2022-12-11T21:17:47.492Z,98608.50
2022-12-11T21:20:14.962Z,98604.91
2022-12-11T21:22:42.954Z,98608.31
2022-12-11T21:25:11.185Z,98608.22
2022-12-11T21:27:40.011Z,98595.25
2022-12-11T21:30:07.648Z,98617.56
2022-12-11T21:32:35.583Z,98631.38
2022-12-11T21:35:03.290Z,98640.88
2022-12-11T21:37:31.094Z,98651.69
2022-12-11T21:39:58.600Z,98642.63
2022-12-11T21:42:27.819Z,98657.47
2022-12-11T21:47:42.809Z,98650.94
2022-12-11T21:50:11.551Z,98651.69
2022-12-11T21:52:41.057Z,98639.00
2022-12-11T21:55:08.519Z,98645.53
2022-12-11T21:57:36.017Z,98626.28
2022-12-11T22:00:05.840Z,98652.38
2022-12-11T22:02:41.194Z,98659.75
2022-12-11T22:05:09.469Z,98651.91
2022-12-11T22:07:37.222Z,98659.75
2022-12-11T22:10:05.988Z,98660.44
2022-12-11T22:12:36.162Z,98658.22
2022-12-11T22:15:04.938Z,98666.44
2022-12-11T22:17:33.138Z,98632.97
2022-12-11T22:20:01.669Z,98650.72
2022-12-11T22:22:36.066Z,98673.09
2022-12-11T22:25:07.109Z,98660.97
2022-12-11T22:27:35.133Z,98678.22
2022-12-11T22:30:02.744Z,98669.44
2022-12-11T22:32:31.404Z,98665.19
2022-12-11T22:34:58.716Z,98666.09
2022-12-11T22:37:26.922Z,98663.75
2022-12-11T22:39:54.123Z,98670.56
2022-12-11T22:42:21.956Z,98668.88
2022-12-11T22:44:49.537Z,98654.97
2022-12-11T22:47:17.119Z,98662.22
2022-12-11T22:49:44.306Z,98654.81
2022-12-11T22:52:12.964Z,98653.13
2022-12-11T22:54:42.170Z,98649.00
2022-12-11T22:57:09.897Z,98656.53
2022-12-11T22:59:37.191Z,98664.41
2022-12-11T23:02:04.801Z,98681.25
2022-12-11T23:04:33.218Z,98680.59
2022-12-11T23:07:00.787Z,98685.34
2022-12-11T23:09:28.156Z,98673.84
2022-12-11T23:11:55.984Z,98674.78
2022-12-11T23:14:26.120Z,98657.91
2022-12-11T23:16:54.547Z,98659.94
2022-12-11T23:19:25.441Z,98664.69
2022-12-11T23:21:53.833Z,98662.97
2022-12-11T23:24:21.255Z,98676.94
2022-12-11T23:26:48.778Z,98663.56
2022-12-11T23:29:15.990Z,98651.94
2022-12-11T23:31:43.506Z,98657.66
2022-12-11T23:34:10.798Z,98650.00
2022-12-11T23:36:39.276Z,98642.22
2022-12-11T23:39:06.608Z,98640.78
2022-12-11T23:41:34.154Z,98653.19
2022-12-11T23:44:01.596Z,98656.59
2022-12-11T23:46:32.643Z,98657.38
2022-12-11T23:49:00.101Z,98645.22
2022-12-11T23:51:27.820Z,98639.59
2022-12-11T23:54:00.490Z,98635.66
2022-12-11T23:56:29.466Z,98656.38
2022-12-11T23:58:57.772Z,98654.50
